Burdett, Kansas
Current Conditions -  °F | °C
As of 5:55 PM on Wednesday 22 Oct 2014 (Local Time) from KGBD Reporting Station
Few Clouds Few Clouds  
Wind Chill: 64°   Ceiling: Unl
Heat Index: 64°   Visibility: 10mi
Dew Point: 55°   Wind: 16mph
Humidity: 73%   Direction: 190°S
Pressure: 30.02"   Gusts: NA
Location:  38.19°N, 99.53°W
Report Text: KGBD 222255Z AUTO 19014KT 10SM FEW120 18/13 A3002 RMK AO1
Loading
Personal Weather Stations






























Interactive Weather Map
Tropical Storm Tracking
New forecast layout! Learn more

10-Day Weather Forecast

Advertisements
Track Severe Weather on mobile